METAR / TAF

Die METAR- und TAF-Liste ist aus technischen Gründen (Verfügbarkeit, Update-Zyklen) nicht für ein Meteo-Briefing gedacht. Benutzen Sie stattdessen skybriefing der Skyguide  oder das TAMSI (MeteoSchweiz-eigene Meteo Selfbriefing-Plattform für Firmen aus der Aviatik; Anfragen über das

Kontaktformular

METAR Schweiz

METAR     LSZH 212050Z VRB02KT 6000 NSC M04/M05 Q1036 NOSIG=
METAR     LSZH 212120Z VRB01KT 6000 NSC M04/M05 Q1036 NOSIG=
METAR     LSGG 212050Z VRB02KT 9000 NSC M02/M03 Q1035 NOSIG=
METAR     LSGG 212120Z VRB02KT 9000 NSC M02/M03 Q1035 NOSIG=
METAR     LFSB 212100Z VRB01KT 6000 NSC M03/M04 Q1037 TEMPO 4000 BR=
METAR     LSZB 212050Z AUTO VRB01KT 6000 NSC M03/M04 Q1035=
METAR     LSZB 212120Z AUTO VRB01KT 4500 BR NSC M03/M04 Q1035=
METAR     LSZA 212050Z AUTO VRB01KT 9999 NSC M00/M03 Q1039=
METAR     LSZA 212120Z AUTO 01003KT 350V070 CAVOK M01/M04 Q1039=
METAR     LSZG 212050Z AUTO 05002KT 6000 NSC M03/M04 Q1036=
METAR     LSZG 212120Z AUTO 07001KT 5000 NSC M03/M04 Q1036=
METAR     LSZR 212050Z AUTO 26005KT 7000 OVC010 M00/M02 Q1036=
METAR     LSZR 212120Z AUTO 26005KT 210V280 7000 OVC009 M01/M02
               Q1036=
METAR     LSGS 212050Z 08005KT CAVOK 01/M05 Q1035=
METAR     LSGS 212120Z 08006KT CAVOK 01/M05 Q1035=
METAR     LSGC 212050Z AUTO VRB01KT CAVOK M04/M07 Q1032=
METAR     LSGC 212120Z AUTO 00000KT 9999 NSC M04/M07 Q1032=
METAR     LSZC 212050Z AUTO 24004KT 220V280 7000 NSC M02/M04 Q1036=
METAR     LSZC 212120Z AUTO 25003KT 9000 NSC M02/M04 Q1036=
METAR RRA LSZL 212050Z AUTO 06001KT 9999NDV FEW230 M00/M04 Q1039
               RMK=
METAR     LSZL 212120Z AUTO VRB02KT 9999NDV FEW220 M00/M05 Q1039
               RMK=
METAR     LSZS 212050Z AUTO 20002KT 9999 NSC M09/M12 Q1036=
METAR     LSZS 212120Z AUTO 21003KT CAVOK M09/M13 Q1036=
METAR     LSMA 212050Z AUTO 00000KT 6000NDV NCD M03/M04 Q1036 RMK=
METAR     LSMA 212120Z AUTO 20003KT 5000NDV BR NCD M03/M04 Q1036
               RMK=
METAR RRB LSMD 212050Z AUTO 00000KT 7000NDV NCD M04/M05 Q1036 RMK=
METAR     LSMD 212120Z AUTO 01001KT 6000NDV NCD M03/M04 Q1036 RMK=
METAR RRA LSME 212050Z AUTO 00000KT 4900NDV BR NCD M03/M04 Q1036
               RMK=
METAR     LSME 212120Z AUTO 00000KT 5000NDV NCD M03/M04 Q1036 RMK=
METAR     LSMM 212050Z VRB01KT 9999 FEW230 M03/M05 Q1035 RMK BLU+=
METAR     LSMM 212120Z VRB02KT 9999 FEW190 SCT220 M03/M05 Q1035 RMK
               BLU+=
METAR     LSMP 212050Z 21002KT 6000 NSC M02/M03 Q1036 RMK WHT=
METAR     LSMP 212120Z VRB01KT 7000 NSC M02/M03 Q1036 RMK WHT=
Aktualisiert am Dienstag, 21. Januar 2020, 22:30 Uhr

TAF Schweiz

TAF     LSZH 212025Z 2121/2303 03004KT 7000 NSC TX02/2214Z
             TNM04/2206Z BECMG 2122/2124 4000 BR BECMG 2200/2202
             1500 BCFG SCT004 PROB40 2203/2208 0500 FZFG VV002
             BECMG 2208/2211 7000 NSW TEMPO 2212/2216 CAVOK BECMG
             2221/2223 4500 BR SCT005=
TAF     LSGG 212025Z 2121/2303 VRB03KT CAVOK TX04/2215Z TNM02/2206Z
             PROB30 TEMPO 2202/2209 8000 BKN014=
TAF     LFSB 211700Z 2118/2218 34003KT CAVOK TEMPO 2200/2209 4000
             BR PROB40 TEMPO 2203/2208 0800 BCFG=
TAF     LSGS 211725Z 2118/2203 VRB03KT CAVOK=
TAF AAG LSZA 212050Z 2120/2124 CNL=
TAF     LSZA 211425Z 2115/2124 VRB03KT CAVOK=
TAF AAB LSZB 212050Z 2120/2124 CNL=
TAF     LSZB 211425Z 2115/2124 VRB03KT CAVOK BECMG 2119/2121 6000
             NSC=
TAF AAC LSZG 212050Z 2120/2124 CNL=
TAF     LSZG 211425Z 2115/2124 08004KT 7000 NSC PROB40 2115/2118
             CAVOK BECMG 2119/2121 4000 BR BECMG 2121/2124 1500
             BCFG SCT005=
TAF     LSZL 211725Z 2118/2203 VRB03KT CAVOK=
TAF AAD LSZR 212050Z 2120/2124 CNL=
TAF     LSZR 211425Z 2115/2124 28005KT 8000 NSC BECMG 2119/2122
             4000 BR SCT008=
TAF AAA LSGC 212002Z 2120/2124 CNL=
TAF     LSGC 211425Z 2115/2124 VRB03KT CAVOK=
TAF AAF LSZC 212050Z 2120/2124 CNL=
TAF     LSZC 211425Z 2115/2124 VRB03KT 8000 FEW015 PROB40 2115/2118
             CAVOK BECMG 2118/2121 4000 BR=
TAF AAE LSZS 212050Z 2120/2124 CNL=
TAF     LSZS 211425Z 2115/2124 VRB03KT CAVOK TXM02/2115Z=
TAF AAA LSMA 211817Z 2118/2223 VRB03KT 7000 NSC BECMG 2122/2201
             4000 BR SCT012 PROB40 2200/2208 1500 BCFG SCT005
             PROB30 2202/2208 BKN005 BECMG 2208/2210 7000 NSW
             TEMPO 2211/2219 CAVOK BECMG 2220/2223 4000 BR NSC=
TAF     LSMA 211625Z 2117/2223 VRB03KT CAVOK BECMG 2122/2201 4000
             BR SCT012 PROB40 2200/2208 1500 BCFG SCT005 PROB30
             2202/2208 BKN005 BECMG 2208/2210 7000 NSW TEMPO
             2211/2219 CAVOK BECMG 2220/2223 4000 BR NSC=
TAF     LSMD 211625Z 2117/2223 03004KT CAVOK BECMG 2121/2201 4000
             BR SCT012 PROB40 2200/2208 1500 BCFG SCT005 PROB30
             2202/2208 0500 FZFG VV002 BECMG 2208/2211 7000 NSW
             TEMPO 2212/2220 CAVOK PROB40 2220/2223 4000 BR NSC=
TAF AAB LSME 211817Z 2118/2223 VRB03KT 5000 NSC BECMG 2119/2122
             4000 BR SCT012 PROB40 2200/2208 1500 BCFG SCT005
             PROB30 2202/2208 0500 FZFG VV002 BECMG 2208/2211 7000
             NSW TEMPO 2212/2219 CAVOK BECMG 2220/2223 4000 BR
             NSC=
TAF     LSME 211625Z 2117/2223 VRB03KT CAVOK BECMG 2122/2201 4000
             BR SCT012 PROB40 2200/2208 1500 BCFG SCT005 PROB30
             2202/2208 0500 FZFG VV002 BECMG 2208/2211 7000 NSW
             TEMPO 2212/2219 CAVOK BECMG 2220/2223 4000 BR NSC=
TAF     LSMM 211625Z 2117/2223 VRB03KT CAVOK PROB40 2123/2207 4000
             BR PROB30 2202/2207 0400 FZFG VV001 BECMG 2207/2209
             7000 NSW TEMPO 2209/2223 CAVOK=
TAF     LSMP 211625Z 2117/2223 VRB03KT CAVOK BECMG 2120/2122 4500
             BR NSC PROB40 2201/2208 0500 FZFG VV002=
Aktualisiert am Dienstag, 21. Januar 2020, 22:38 Uhr